» Metar & Tafor

21 Juli 2019
SPECI
Pukul :
Isi :

SPECI WAGI 210318Z 10008KT SHRA 4000 BKN011 30/24 Q1010=


20 Juli 2019
METAR
Pukul :
Isi :
METAR WAGI 211100Z 17002KT 7000 BKN011 26/24 Q1008 NOSIG=

10 Juni 2019
TAFOR
Pukul : 06 - 18 UTC
Isi :

TAF WAGI 210500Z 2106/2118 13008KT 9999 FEW011CB BKN011 TEMPO 2106/2110 4000 TSRA FEW011CB BKN011=


Hal: << First | < Prev | 1 | Next > | Last >>